createdAt,value
2022-08-21T00:00:06.090Z,3.13
2022-08-21T00:01:18.987Z,2.93
2022-08-21T00:02:30.593Z,3.53
2022-08-21T00:03:42.211Z,3.13
2022-08-21T00:04:57.765Z,3.73
2022-08-21T00:06:09.550Z,4.40
2022-08-21T00:07:25.975Z,3.80
2022-08-21T00:08:37.507Z,3.43
2022-08-21T00:09:49.397Z,4.63
2022-08-21T00:11:01.045Z,3.17
2022-08-21T00:12:12.706Z,3.97
2022-08-21T00:13:24.322Z,3.60
2022-08-21T00:14:36.005Z,4.03
2022-08-21T00:15:48.194Z,3.77
2022-08-21T00:17:00.226Z,4.07
2022-08-21T00:18:11.833Z,3.80
2022-08-21T00:19:25.842Z,4.10
2022-08-21T00:20:38.242Z,3.70
2022-08-21T00:21:49.810Z,3.90
2022-08-21T00:23:01.805Z,4.23
2022-08-21T00:24:13.418Z,2.53
2022-08-21T00:25:26.098Z,3.13
2022-08-21T00:26:40.611Z,3.13
2022-08-21T00:27:52.923Z,3.43
2022-08-21T00:29:04.869Z,3.50
2022-08-21T00:30:22.877Z,3.77
2022-08-21T00:31:34.759Z,3.67
2022-08-21T00:32:46.608Z,3.23
2022-08-21T00:34:00.745Z,3.40
2022-08-21T00:35:15.207Z,2.73
2022-08-21T00:36:26.810Z,3.20
2022-08-21T00:37:39.144Z,3.67
2022-08-21T00:38:50.671Z,3.67
2022-08-21T00:40:02.340Z,2.80
2022-08-21T00:41:37.934Z,2.63
2022-08-21T00:42:53.326Z,2.37
2022-08-21T00:44:06.732Z,2.63
2022-08-21T00:45:18.240Z,2.70
2022-08-21T00:46:32.786Z,3.10
2022-08-21T00:47:44.318Z,2.50
2022-08-21T00:48:59.097Z,2.70
2022-08-21T00:50:21.767Z,2.83
2022-08-21T00:51:38.258Z,3.03
2022-08-21T00:52:53.437Z,3.00
2022-08-21T00:54:05.392Z,3.33
2022-08-21T00:55:17.697Z,3.07
2022-08-21T00:56:29.771Z,2.70
2022-08-21T00:57:46.910Z,2.83
2022-08-21T00:58:59.351Z,3.23
2022-08-21T01:00:12.931Z,2.70
2022-08-21T01:01:24.447Z,3.13
2022-08-21T01:02:36.072Z,2.93
2022-08-21T01:03:47.904Z,3.23
2022-08-21T01:05:01.699Z,3.50
2022-08-21T01:06:13.351Z,3.23
2022-08-21T01:07:27.787Z,3.10
2022-08-21T01:08:39.898Z,3.53
2022-08-21T01:09:58.763Z,3.43
2022-08-21T01:11:10.294Z,2.80
2022-08-21T01:12:21.785Z,3.30
2022-08-21T01:13:35.814Z,3.57
2022-08-21T01:14:47.379Z,3.53
2022-08-21T01:16:00.443Z,3.23
2022-08-21T01:17:13.643Z,3.03
2022-08-21T01:18:25.207Z,3.40
2022-08-21T01:19:36.855Z,3.10
2022-08-21T01:21:00.257Z,3.13
2022-08-21T01:22:11.764Z,4.00
2022-08-21T01:23:23.955Z,2.70
2022-08-21T01:24:35.531Z,3.20
2022-08-21T01:25:47.018Z,3.50
2022-08-21T01:26:58.909Z,3.00
2022-08-21T01:28:12.987Z,3.00
2022-08-21T01:29:33.701Z,3.27
2022-08-21T01:30:45.476Z,2.77
2022-08-21T01:31:57.424Z,3.10
2022-08-21T01:33:08.953Z,3.10
2022-08-21T01:34:20.442Z,2.93
2022-08-21T01:35:32.167Z,3.17
2022-08-21T01:36:44.243Z,3.07
2022-08-21T01:37:55.753Z,2.97
2022-08-21T01:39:07.302Z,3.37
2022-08-21T01:40:19.948Z,3.30
2022-08-21T01:41:31.651Z,3.33
2022-08-21T01:42:45.463Z,2.30
2022-08-21T01:43:57.214Z,3.13
2022-08-21T01:45:09.246Z,2.80
2022-08-21T01:46:20.758Z,2.77
2022-08-21T01:47:32.331Z,2.77
2022-08-21T01:48:44.272Z,3.33
2022-08-21T01:49:56.031Z,3.17
2022-08-21T01:51:07.630Z,3.50
2022-08-21T01:52:19.305Z,3.30
2022-08-21T01:53:33.592Z,3.20
2022-08-21T01:54:54.850Z,3.20
2022-08-21T01:56:12.602Z,3.70
2022-08-21T01:57:26.307Z,3.33
2022-08-21T01:58:38.149Z,2.60
2022-08-21T01:59:49.654Z,3.17
2022-08-21T02:01:02.595Z,3.17
2022-08-21T02:02:14.560Z,3.13
2022-08-21T02:03:35.138Z,3.20
2022-08-21T02:04:47.811Z,3.10
2022-08-21T02:05:59.375Z,3.60
2022-08-21T02:07:10.938Z,3.37
2022-08-21T02:08:24.332Z,3.03
2022-08-21T02:09:35.938Z,3.07
2022-08-21T02:10:52.205Z,3.27
2022-08-21T02:12:04.019Z,3.00
2022-08-21T02:13:15.534Z,3.50
2022-08-21T02:14:32.072Z,3.43
2022-08-21T02:15:44.701Z,2.97
2022-08-21T02:17:03.367Z,4.03
2022-08-21T02:18:21.146Z,2.77
2022-08-21T02:19:39.544Z,3.63
2022-08-21T02:20:56.039Z,3.07
2022-08-21T02:22:11.420Z,3.37
2022-08-21T02:23:26.797Z,3.40
2022-08-21T02:24:50.178Z,2.50
2022-08-21T02:26:07.656Z,3.07
2022-08-21T02:27:19.136Z,3.30
2022-08-21T02:28:39.049Z,3.23
2022-08-21T02:29:50.554Z,3.50
2022-08-21T02:31:02.737Z,3.77
2022-08-21T02:32:15.806Z,3.20
2022-08-21T02:33:27.340Z,3.00
2022-08-21T02:34:38.822Z,3.20
2022-08-21T02:35:50.913Z,2.87
2022-08-21T02:37:02.396Z,3.30
2022-08-21T02:38:20.035Z,3.53
2022-08-21T02:39:31.527Z,3.10
2022-08-21T02:40:48.317Z,2.70
2022-08-21T02:42:02.447Z,2.93
2022-08-21T02:43:14.623Z,3.17
2022-08-21T02:44:34.266Z,2.50
2022-08-21T02:45:46.667Z,2.60
2022-08-21T02:46:58.177Z,3.13
2022-08-21T02:48:10.648Z,2.80
2022-08-21T02:49:22.148Z,3.50
2022-08-21T02:50:35.159Z,3.20
2022-08-21T02:51:46.640Z,3.33
2022-08-21T02:52:58.511Z,3.47
2022-08-21T02:54:10.179Z,2.67
2022-08-21T02:55:22.402Z,3.37
2022-08-21T02:56:33.908Z,2.70
2022-08-21T02:57:45.435Z,3.30
2022-08-21T02:58:56.918Z,2.97
2022-08-21T03:00:10.193Z,3.40
2022-08-21T03:01:21.796Z,3.27
2022-08-21T03:02:33.324Z,3.50
2022-08-21T03:03:46.088Z,3.43
2022-08-21T03:04:57.626Z,3.20
2022-08-21T03:06:10.207Z,3.67
2022-08-21T03:07:21.711Z,4.17
2022-08-21T03:08:33.186Z,3.13
2022-08-21T03:09:55.096Z,3.10
2022-08-21T03:11:07.691Z,2.83
2022-08-21T03:12:21.736Z,3.50
2022-08-21T03:13:33.601Z,3.17
2022-08-21T03:14:45.097Z,3.93
2022-08-21T03:15:56.623Z,3.30
2022-08-21T03:17:09.943Z,3.73
2022-08-21T03:18:21.494Z,2.40
2022-08-21T03:19:32.974Z,3.53
2022-08-21T03:20:46.130Z,3.70
2022-08-21T03:21:57.622Z,3.30
2022-08-21T03:23:13.380Z,3.03
2022-08-21T03:24:28.254Z,4.03
2022-08-21T03:25:41.104Z,2.97
2022-08-21T03:26:52.782Z,3.03
2022-08-21T03:28:05.130Z,3.00
2022-08-21T03:29:17.014Z,4.40
2022-08-21T03:30:29.130Z,3.57
2022-08-21T03:31:40.705Z,3.67
2022-08-21T03:32:52.232Z,3.73
2022-08-21T03:34:03.817Z,3.67
2022-08-21T03:35:15.355Z,3.70
2022-08-21T03:36:26.868Z,3.53
2022-08-21T03:37:39.533Z,4.07
2022-08-21T03:38:51.142Z,2.87
2022-08-21T03:40:04.439Z,3.37
2022-08-21T03:41:16.080Z,3.17
2022-08-21T03:42:27.547Z,4.10
2022-08-21T03:43:39.611Z,3.17
2022-08-21T03:44:51.450Z,3.67
2022-08-21T03:46:04.427Z,3.60
2022-08-21T03:47:15.971Z,4.30
2022-08-21T03:48:27.552Z,3.63
2022-08-21T03:49:39.052Z,4.57
2022-08-21T03:50:53.006Z,3.50
2022-08-21T03:52:04.757Z,5.17
2022-08-21T03:53:17.912Z,4.00
2022-08-21T03:54:29.623Z,4.10
2022-08-21T03:55:41.308Z,4.53
2022-08-21T03:56:52.925Z,4.20
2022-08-21T03:58:16.667Z,3.83
2022-08-21T03:59:28.874Z,3.93
2022-08-21T04:00:40.361Z,4.10
2022-08-21T04:01:59.608Z,3.60
2022-08-21T04:03:12.396Z,3.80
2022-08-21T04:04:24.202Z,3.67
2022-08-21T04:05:35.699Z,3.97
2022-08-21T04:06:47.799Z,3.90
2022-08-21T04:08:00.224Z,3.57
2022-08-21T04:09:11.735Z,3.80
2022-08-21T04:10:24.663Z,3.20
2022-08-21T04:11:36.162Z,3.40
2022-08-21T04:12:47.680Z,3.07
2022-08-21T04:13:59.151Z,3.27
2022-08-21T04:15:10.767Z,3.23
2022-08-21T04:16:22.280Z,3.83
2022-08-21T04:17:34.190Z,3.47
2022-08-21T04:18:45.671Z,4.67
2022-08-21T04:19:57.518Z,3.73
2022-08-21T04:21:11.077Z,4.70
2022-08-21T04:22:23.363Z,3.97
2022-08-21T04:23:35.214Z,4.30
2022-08-21T04:24:46.695Z,4.43
2022-08-21T04:25:58.692Z,3.80
2022-08-21T04:27:10.189Z,4.20
2022-08-21T04:28:23.378Z,3.80
2022-08-21T04:29:39.461Z,3.40
2022-08-21T04:30:53.031Z,4.30
2022-08-21T04:32:04.717Z,4.27
2022-08-21T04:33:16.197Z,3.70
2022-08-21T04:34:27.685Z,3.73
2022-08-21T04:35:39.196Z,4.20
2022-08-21T04:36:50.769Z,3.73
2022-08-21T04:38:02.249Z,3.67
2022-08-21T04:39:13.720Z,3.53
2022-08-21T04:40:26.488Z,3.93
2022-08-21T04:41:38.690Z,3.70
2022-08-21T04:42:52.237Z,4.20
2022-08-21T04:44:04.116Z,3.80
2022-08-21T04:45:23.801Z,3.33
2022-08-21T04:46:35.480Z,3.10
2022-08-21T04:47:52.843Z,3.17
2022-08-21T04:49:04.824Z,3.40
2022-08-21T04:50:18.093Z,3.67
2022-08-21T04:51:32.256Z,3.87
2022-08-21T04:52:43.863Z,4.10
2022-08-21T04:53:59.512Z,3.50
2022-08-21T04:55:11.510Z,3.70
2022-08-21T04:56:26.020Z,4.00
2022-08-21T04:57:48.413Z,4.67
2022-08-21T04:59:03.918Z,3.70
2022-08-21T05:00:16.012Z,4.20
2022-08-21T05:01:28.862Z,3.53
2022-08-21T05:02:41.397Z,3.87
2022-08-21T05:03:56.715Z,3.67
2022-08-21T05:05:08.473Z,4.47
2022-08-21T05:06:20.550Z,3.27
2022-08-21T05:07:42.323Z,3.43
2022-08-21T05:09:01.960Z,3.60
2022-08-21T05:10:14.945Z,3.90
2022-08-21T05:11:26.516Z,3.70
2022-08-21T05:12:38.056Z,4.20
2022-08-21T05:13:56.334Z,4.17
2022-08-21T05:15:09.478Z,3.73
2022-08-21T05:16:36.991Z,4.43
2022-08-21T05:17:55.469Z,3.53
2022-08-21T05:19:13.153Z,3.67
2022-08-21T05:20:25.972Z,4.10
2022-08-21T05:21:39.377Z,3.80
2022-08-21T05:22:50.953Z,3.53
2022-08-21T05:24:02.998Z,3.77
2022-08-21T05:25:14.653Z,3.53
2022-08-21T05:26:28.148Z,3.70
2022-08-21T05:27:41.320Z,4.77
2022-08-21T05:28:56.513Z,4.03
2022-08-21T05:30:09.791Z,3.47
2022-08-21T05:31:21.281Z,4.57
2022-08-21T05:32:32.817Z,4.30
2022-08-21T05:33:44.312Z,4.77
2022-08-21T05:34:55.901Z,4.97
2022-08-21T05:36:07.619Z,4.47
2022-08-21T05:37:19.222Z,4.17
2022-08-21T05:38:30.782Z,4.40
2022-08-21T05:40:21.323Z,4.23
2022-08-21T05:41:14.289Z,4.10
2022-08-21T05:42:25.784Z,3.83
2022-08-21T05:43:37.401Z,4.10
2022-08-21T05:44:49.163Z,4.60
2022-08-21T05:46:01.734Z,4.80
2022-08-21T05:47:13.303Z,5.23
2022-08-21T05:48:25.442Z,4.50
2022-08-21T05:49:37.196Z,4.33
2022-08-21T05:50:49.252Z,4.23
2022-08-21T05:52:00.854Z,4.33
2022-08-21T05:53:12.339Z,4.17
2022-08-21T05:54:23.843Z,3.43
2022-08-21T05:55:37.306Z,3.67
2022-08-21T05:56:50.940Z,4.53
2022-08-21T05:58:02.528Z,3.77
2022-08-21T05:59:14.223Z,3.33
2022-08-21T06:00:25.817Z,4.10
2022-08-21T06:01:37.430Z,3.93
2022-08-21T06:02:49.748Z,3.37
2022-08-21T06:04:01.465Z,3.47
2022-08-21T06:05:14.290Z,3.80
2022-08-21T06:06:32.638Z,3.00
2022-08-21T06:07:44.545Z,3.30
2022-08-21T06:08:56.049Z,4.30
2022-08-21T06:10:07.802Z,3.40
2022-08-21T06:11:20.835Z,3.80
2022-08-21T06:12:32.400Z,3.50
2022-08-21T06:13:43.930Z,3.80
2022-08-21T06:14:55.466Z,3.57
2022-08-21T06:16:08.811Z,4.37
2022-08-21T06:17:20.314Z,4.63
2022-08-21T06:18:31.817Z,5.07
2022-08-21T06:19:43.299Z,4.70
2022-08-21T06:20:57.628Z,4.10
2022-08-21T06:22:09.649Z,4.57
2022-08-21T06:23:21.241Z,4.40
2022-08-21T06:24:44.764Z,4.37
2022-08-21T06:25:56.470Z,4.10
2022-08-21T06:27:08.567Z,4.17
2022-08-21T06:28:20.991Z,4.33
2022-08-21T06:29:32.965Z,4.13
2022-08-21T06:30:56.210Z,4.40
2022-08-21T06:32:08.511Z,3.90
2022-08-21T06:33:22.239Z,4.07
2022-08-21T06:34:37.347Z,3.37
2022-08-21T06:35:49.549Z,3.73
2022-08-21T06:37:01.144Z,3.40
2022-08-21T06:38:12.682Z,3.80
2022-08-21T06:39:25.369Z,3.37
2022-08-21T06:40:43.789Z,3.83
2022-08-21T06:41:58.821Z,3.90
2022-08-21T06:43:12.143Z,3.80
2022-08-21T06:44:26.919Z,4.37
2022-08-21T06:45:38.845Z,4.13
2022-08-21T06:46:50.330Z,3.53
2022-08-21T06:48:01.918Z,4.50
2022-08-21T06:49:20.041Z,4.57
2022-08-21T06:50:33.108Z,3.93
2022-08-21T06:51:44.676Z,3.90
2022-08-21T06:53:00.700Z,4.47
2022-08-21T06:54:12.250Z,4.30
2022-08-21T06:55:27.445Z,4.00
2022-08-21T06:56:40.654Z,3.50
2022-08-21T06:57:52.931Z,3.63
2022-08-21T06:59:04.683Z,4.77
2022-08-21T07:00:16.622Z,7.90
2022-08-21T07:01:28.396Z,8.13
2022-08-21T07:02:41.507Z,17.30
2022-08-21T07:03:53.785Z,12.60
2022-08-21T07:05:10.149Z,9.67
2022-08-21T07:06:30.081Z,5.30
2022-08-21T07:07:46.497Z,5.97
2022-08-21T07:08:58.984Z,5.27
2022-08-21T07:10:12.083Z,4.40
2022-08-21T07:11:44.136Z,4.73
2022-08-21T07:13:01.376Z,4.43
2022-08-21T07:14:20.074Z,5.10
2022-08-21T07:15:32.153Z,8.90
2022-08-21T07:16:43.666Z,7.40
2022-08-21T07:17:55.624Z,7.63
2022-08-21T07:19:07.093Z,5.20
2022-08-21T07:20:18.630Z,4.90
2022-08-21T07:21:30.120Z,4.23
2022-08-21T07:22:42.120Z,4.10
2022-08-21T07:23:53.844Z,5.00
2022-08-21T07:25:06.242Z,4.27
2022-08-21T07:26:20.881Z,3.67
2022-08-21T07:27:32.771Z,4.60
2022-08-21T07:28:44.603Z,4.50
2022-08-21T07:29:56.098Z,6.97
2022-08-21T07:31:09.519Z,5.13
2022-08-21T07:32:21.534Z,4.27
2022-08-21T07:33:34.242Z,4.07
2022-08-21T07:34:45.852Z,3.90
2022-08-21T07:36:00.253Z,4.37
2022-08-21T07:37:11.728Z,4.17
2022-08-21T07:38:23.458Z,4.13
2022-08-21T07:39:35.848Z,4.87
2022-08-21T07:40:48.565Z,3.93
2022-08-21T07:42:00.894Z,3.97
2022-08-21T07:43:13.650Z,3.77
2022-08-21T07:44:25.341Z,3.33
2022-08-21T07:45:36.822Z,4.13
2022-08-21T07:46:48.523Z,4.47
2022-08-21T07:48:00.084Z,4.60
2022-08-21T07:49:11.628Z,6.10
2022-08-21T07:50:23.338Z,6.20
2022-08-21T07:51:34.978Z,4.57
2022-08-21T07:52:46.894Z,4.20
2022-08-21T07:54:00.116Z,4.13
2022-08-21T07:55:14.377Z,4.07
2022-08-21T07:56:29.341Z,3.67
2022-08-21T07:57:41.051Z,3.70
2022-08-21T07:58:52.678Z,25.47
2022-08-21T08:00:05.597Z,17.43
2022-08-21T08:01:17.409Z,7.03
2022-08-21T08:02:30.658Z,5.03
2022-08-21T08:03:42.990Z,5.20
2022-08-21T08:04:54.597Z,4.50
2022-08-21T08:06:07.324Z,4.63
2022-08-21T08:07:19.046Z,4.57
2022-08-21T08:08:30.519Z,5.13
2022-08-21T08:09:41.998Z,5.47
2022-08-21T08:10:54.731Z,4.70
2022-08-21T08:12:06.392Z,4.90
2022-08-21T08:13:17.988Z,5.40
2022-08-21T08:14:31.419Z,4.63
2022-08-21T08:15:43.309Z,5.10
2022-08-21T08:16:54.805Z,5.23
2022-08-21T08:18:06.290Z,6.00
2022-08-21T08:19:17.782Z,5.37
2022-08-21T08:20:30.126Z,4.87
2022-08-21T08:21:41.627Z,4.37
2022-08-21T08:22:54.528Z,4.30
2022-08-21T08:24:19.136Z,4.53
2022-08-21T08:25:36.552Z,5.97
2022-08-21T08:26:53.812Z,5.87
2022-08-21T08:28:17.079Z,4.33
2022-08-21T08:29:29.237Z,4.73
2022-08-21T08:30:42.011Z,4.73
2022-08-21T08:31:53.550Z,5.27
2022-08-21T08:33:05.052Z,4.77
2022-08-21T08:34:25.077Z,4.67
2022-08-21T08:35:38.919Z,4.67
2022-08-21T08:36:51.217Z,3.80
2022-08-21T08:38:03.191Z,3.87
2022-08-21T08:39:27.033Z,3.57
2022-08-21T08:40:52.444Z,4.27
2022-08-21T08:42:05.011Z,4.07
2022-08-21T08:43:35.672Z,3.87
2022-08-21T08:44:47.990Z,3.80
2022-08-21T08:46:00.326Z,3.53
2022-08-21T08:47:14.063Z,3.53
2022-08-21T08:48:37.521Z,4.20
2022-08-21T08:50:01.227Z,3.90
2022-08-21T08:51:27.972Z,4.30
2022-08-21T08:53:08.891Z,6.47
2022-08-21T08:54:25.480Z,4.93
2022-08-21T08:55:38.500Z,4.00
2022-08-21T08:56:53.426Z,4.20
2022-08-21T08:58:05.150Z,3.57
2022-08-21T08:59:19.231Z,3.77
2022-08-21T09:00:32.081Z,3.70
2022-08-21T09:01:43.679Z,3.67
2022-08-21T09:02:59.215Z,3.73
2022-08-21T09:04:13.549Z,4.33
2022-08-21T09:05:25.028Z,3.50
2022-08-21T09:06:36.700Z,4.30
2022-08-21T09:07:52.665Z,3.97
2022-08-21T09:09:04.252Z,4.87
2022-08-21T09:10:22.158Z,4.27
2022-08-21T09:11:38.044Z,4.67
2022-08-21T09:13:00.795Z,4.30
2022-08-21T09:14:25.026Z,4.60
2022-08-21T09:15:52.097Z,4.03
2022-08-21T09:17:11.743Z,4.13
2022-08-21T09:18:42.182Z,4.50
2022-08-21T09:20:02.991Z,4.67
2022-08-21T09:21:22.029Z,4.07
2022-08-21T09:22:39.183Z,3.87
2022-08-21T09:23:51.108Z,4.00
2022-08-21T09:25:28.613Z,4.30
2022-08-21T09:26:55.529Z,3.00
2022-08-21T09:28:08.850Z,4.10
2022-08-21T09:29:22.759Z,3.90
2022-08-21T09:30:34.349Z,4.43
2022-08-21T09:31:46.615Z,4.00
2022-08-21T09:32:58.239Z,4.77
2022-08-21T09:34:12.389Z,4.70
2022-08-21T09:35:25.117Z,4.40
2022-08-21T09:36:48.529Z,4.73
2022-08-21T09:38:03.862Z,3.93
2022-08-21T09:39:24.214Z,4.03
2022-08-21T09:40:42.878Z,4.67
2022-08-21T09:42:02.613Z,4.57
2022-08-21T09:43:18.613Z,4.47
2022-08-21T09:44:32.531Z,4.73
2022-08-21T09:45:44.875Z,4.90
2022-08-21T09:46:57.398Z,5.20
2022-08-21T09:48:13.794Z,5.10
2022-08-21T09:49:30.394Z,4.37
2022-08-21T09:50:43.127Z,5.03
2022-08-21T09:51:55.717Z,5.20
2022-08-21T09:53:15.793Z,5.07
2022-08-21T09:54:30.258Z,5.03
2022-08-21T09:56:08.303Z,4.93
2022-08-21T09:57:46.369Z,5.33
2022-08-21T09:58:58.402Z,4.90
2022-08-21T10:00:21.664Z,5.20
2022-08-21T10:01:42.941Z,5.30
2022-08-21T10:02:54.924Z,4.70
2022-08-21T10:04:10.126Z,5.23
2022-08-21T10:05:21.729Z,5.40
2022-08-21T10:06:36.060Z,5.20
2022-08-21T10:07:48.718Z,5.73
2022-08-21T10:09:15.236Z,4.93
2022-08-21T10:10:31.430Z,6.00
2022-08-21T10:11:49.417Z,5.63
2022-08-21T10:13:10.173Z,5.50
2022-08-21T10:14:21.653Z,4.73
2022-08-21T10:15:52.491Z,5.27
2022-08-21T10:17:13.134Z,5.07
2022-08-21T10:18:43.476Z,4.10
2022-08-21T10:20:08.268Z,5.07
2022-08-21T10:21:29.000Z,4.63
2022-08-21T10:23:07.638Z,4.57
2022-08-21T10:24:32.114Z,4.83
2022-08-21T10:26:12.737Z,4.53
2022-08-21T10:27:26.252Z,4.10
2022-08-21T10:28:41.049Z,4.33
2022-08-21T10:30:02.642Z,4.77
2022-08-21T10:31:14.168Z,5.13
2022-08-21T10:32:44.276Z,4.53
2022-08-21T10:34:10.802Z,6.17
2022-08-21T10:35:35.177Z,4.73
2022-08-21T10:36:52.608Z,5.13
2022-08-21T10:38:06.943Z,5.07
2022-08-21T10:39:26.468Z,4.63
2022-08-21T10:41:03.128Z,4.70
2022-08-21T10:42:17.813Z,5.57
2022-08-21T10:43:32.753Z,4.73
2022-08-21T10:44:47.062Z,4.73
2022-08-21T10:46:17.052Z,6.07
2022-08-21T10:47:31.577Z,4.43
2022-08-21T10:48:48.962Z,4.07
2022-08-21T10:50:00.678Z,5.03
2022-08-21T10:51:17.799Z,4.17
2022-08-21T10:52:32.273Z,4.43
2022-08-21T10:53:49.681Z,4.73
2022-08-21T10:55:10.530Z,5.27
2022-08-21T10:56:23.600Z,4.37
2022-08-21T10:57:42.918Z,4.60
2022-08-21T10:59:13.115Z,4.67
2022-08-21T11:00:27.974Z,4.50
2022-08-21T11:01:39.495Z,4.67
2022-08-21T11:02:58.234Z,4.27
2022-08-21T11:04:12.721Z,5.17
2022-08-21T11:05:33.793Z,5.00
2022-08-21T11:06:48.520Z,5.13
2022-08-21T11:08:03.339Z,4.80
2022-08-21T11:09:19.271Z,4.33
2022-08-21T11:10:34.969Z,5.23
2022-08-21T11:11:59.471Z,4.73
2022-08-21T11:13:31.280Z,5.13
2022-08-21T11:14:50.760Z,4.93
2022-08-21T11:16:22.701Z,3.90
2022-08-21T11:17:40.160Z,4.80
2022-08-21T11:18:54.721Z,4.53
2022-08-21T11:20:09.797Z,4.70
2022-08-21T11:21:40.264Z,5.07
2022-08-21T11:22:58.948Z,4.40
2022-08-21T11:24:25.223Z,5.37
2022-08-21T11:25:38.168Z,4.47
2022-08-21T11:27:13.551Z,4.50
2022-08-21T11:28:31.614Z,4.33
2022-08-21T11:29:44.955Z,4.50
2022-08-21T11:31:32.034Z,4.93
2022-08-21T11:32:46.594Z,5.40
2022-08-21T11:34:04.141Z,4.80
2022-08-21T11:35:39.433Z,5.10
2022-08-21T11:36:54.396Z,5.17
2022-08-21T11:38:06.118Z,4.67
2022-08-21T11:39:27.949Z,4.70
2022-08-21T11:40:51.482Z,4.33
2022-08-21T11:42:10.618Z,4.73
2022-08-21T11:43:25.415Z,5.23
2022-08-21T11:44:47.100Z,5.13
2022-08-21T11:46:11.107Z,5.43
2022-08-21T11:47:25.933Z,4.40
2022-08-21T11:48:56.229Z,5.40
2022-08-21T11:50:34.516Z,4.87
2022-08-21T11:52:01.107Z,5.83
2022-08-21T11:53:12.597Z,4.77
2022-08-21T11:54:27.317Z,5.53
2022-08-21T11:55:59.421Z,5.97
2022-08-21T11:57:17.119Z,4.60
2022-08-21T11:58:31.758Z,4.43
2022-08-21T12:00:01.783Z,5.13
2022-08-21T12:01:24.053Z,5.30
2022-08-21T12:02:37.136Z,5.10
2022-08-21T12:04:14.674Z,4.80
2022-08-21T12:05:29.004Z,4.80
2022-08-21T12:06:42.111Z,4.67
2022-08-21T12:08:06.395Z,5.17
2022-08-21T12:09:26.688Z,4.13
2022-08-21T12:10:41.112Z,5.63
2022-08-21T12:12:12.943Z,5.87
2022-08-21T12:13:36.669Z,6.67
2022-08-21T12:15:05.983Z,5.27
2022-08-21T12:16:29.866Z,4.87
2022-08-21T12:17:51.809Z,4.90
2022-08-21T12:19:08.192Z,4.60
2022-08-21T12:20:22.949Z,5.20
2022-08-21T12:21:35.171Z,5.30
2022-08-21T12:23:04.306Z,5.27
2022-08-21T12:24:16.396Z,5.40
2022-08-21T12:25:38.094Z,5.50
2022-08-21T12:26:54.333Z,4.63
2022-08-21T12:28:11.088Z,5.30
2022-08-21T12:29:24.310Z,5.60
2022-08-21T12:30:40.742Z,5.43
2022-08-21T12:32:01.117Z,5.20
2022-08-21T12:33:19.696Z,5.10
2022-08-21T12:34:34.561Z,5.10
2022-08-21T12:35:47.302Z,5.10
2022-08-21T12:37:01.978Z,4.67
2022-08-21T12:38:19.332Z,5.00
2022-08-21T12:39:33.600Z,5.47
2022-08-21T12:41:05.623Z,4.57
2022-08-21T12:42:40.856Z,4.80
2022-08-21T12:44:00.762Z,4.30
2022-08-21T12:45:19.134Z,5.03
2022-08-21T12:46:35.442Z,4.10
2022-08-21T12:47:49.793Z,3.90
2022-08-21T12:49:04.077Z,4.43
2022-08-21T12:50:34.012Z,3.97
2022-08-21T12:52:02.381Z,3.33
2022-08-21T12:53:20.413Z,4.53
2022-08-21T12:54:40.860Z,4.13
2022-08-21T12:55:52.407Z,4.10
2022-08-21T12:57:05.459Z,4.77
2022-08-21T12:58:19.978Z,3.87
2022-08-21T12:59:32.247Z,5.73
2022-08-21T13:00:48.165Z,4.47
2022-08-21T13:02:01.592Z,3.93
2022-08-21T13:03:15.092Z,4.80
2022-08-21T13:04:41.196Z,4.47
2022-08-21T13:05:54.676Z,6.13
2022-08-21T13:07:08.615Z,5.20
2022-08-21T13:08:20.938Z,4.90
2022-08-21T13:09:32.498Z,5.20
2022-08-21T13:10:44.545Z,4.90
2022-08-21T13:11:56.883Z,5.13
2022-08-21T13:13:12.526Z,4.97
2022-08-21T13:14:29.781Z,4.90
2022-08-21T13:15:47.598Z,5.30
2022-08-21T13:17:00.674Z,5.30
2022-08-21T13:18:20.901Z,4.70
2022-08-21T13:19:35.110Z,5.80
2022-08-21T13:20:46.854Z,5.53
2022-08-21T13:22:00.893Z,5.40
2022-08-21T13:23:26.866Z,6.07
2022-08-21T13:24:42.695Z,5.13
2022-08-21T13:25:55.861Z,5.53
2022-08-21T13:27:26.311Z,6.17
2022-08-21T13:28:38.824Z,6.60
2022-08-21T13:30:01.740Z,5.30
2022-08-21T13:31:14.480Z,5.70
2022-08-21T13:32:27.188Z,5.53
2022-08-21T13:33:39.954Z,5.20
2022-08-21T13:34:54.493Z,5.27
2022-08-21T13:36:10.851Z,5.10
2022-08-21T13:37:24.502Z,4.20
2022-08-21T13:38:37.500Z,5.10
2022-08-21T13:39:51.316Z,4.30
2022-08-21T13:41:11.587Z,4.90
2022-08-21T13:42:25.516Z,4.60
2022-08-21T13:43:37.551Z,4.80
2022-08-21T13:44:49.293Z,5.27
2022-08-21T13:46:01.346Z,4.80
2022-08-21T13:47:15.941Z,4.53
2022-08-21T13:48:30.277Z,4.77
2022-08-21T13:49:43.627Z,4.60
2022-08-21T13:50:55.462Z,5.10
2022-08-21T13:52:15.410Z,4.37
2022-08-21T13:53:26.879Z,4.53
2022-08-21T13:54:40.783Z,4.30
2022-08-21T13:55:55.340Z,4.93
2022-08-21T13:57:19.538Z,4.70
2022-08-21T13:58:44.865Z,4.40
2022-08-21T14:00:15.228Z,4.80
2022-08-21T14:01:30.303Z,4.93
2022-08-21T14:02:43.560Z,5.07
2022-08-21T14:03:58.990Z,4.93
2022-08-21T14:05:17.020Z,4.00
2022-08-21T14:06:29.355Z,5.10
2022-08-21T14:07:42.145Z,4.97
2022-08-21T14:09:11.355Z,3.97
2022-08-21T14:10:23.698Z,4.57
2022-08-21T14:11:35.688Z,4.13
2022-08-21T14:12:52.927Z,4.57
2022-08-21T14:14:27.223Z,5.00
2022-08-21T14:15:40.079Z,4.67
2022-08-21T14:16:57.001Z,3.97
2022-08-21T14:18:10.765Z,4.43
2022-08-21T14:19:36.909Z,4.00
2022-08-21T14:20:48.502Z,3.80
2022-08-21T14:22:00.528Z,4.27
2022-08-21T14:23:14.636Z,4.33
2022-08-21T14:24:28.343Z,4.23
2022-08-21T14:25:44.009Z,4.30
2022-08-21T14:26:58.881Z,4.40
2022-08-21T14:28:10.370Z,4.33
2022-08-21T14:29:24.043Z,3.90
2022-08-21T14:30:37.211Z,4.57
2022-08-21T14:31:57.046Z,5.07
2022-08-21T14:33:12.752Z,3.73
2022-08-21T14:34:30.769Z,4.00
2022-08-21T14:35:44.538Z,4.07
2022-08-21T14:36:56.801Z,3.70
2022-08-21T14:38:18.912Z,4.27
2022-08-21T14:39:30.485Z,4.30
2022-08-21T14:40:43.018Z,3.67
2022-08-21T14:41:55.186Z,3.90
2022-08-21T14:43:06.758Z,3.57
2022-08-21T14:44:21.807Z,3.53
2022-08-21T14:45:33.353Z,3.10
2022-08-21T14:46:55.180Z,3.70
2022-08-21T14:48:09.279Z,3.47
2022-08-21T14:49:20.902Z,3.57
2022-08-21T14:50:32.427Z,3.63
2022-08-21T14:51:54.102Z,3.63
2022-08-21T14:53:11.059Z,3.40
2022-08-21T14:54:28.166Z,3.87
2022-08-21T14:56:01.375Z,3.27
2022-08-21T14:57:13.900Z,3.57
2022-08-21T14:58:26.273Z,3.67
2022-08-21T14:59:38.685Z,3.67
2022-08-21T15:00:50.789Z,3.73
2022-08-21T15:02:04.213Z,3.80
2022-08-21T15:03:15.937Z,3.23
2022-08-21T15:04:27.549Z,3.60
2022-08-21T15:05:39.100Z,3.43
2022-08-21T15:06:50.577Z,3.83
2022-08-21T15:08:02.645Z,3.30
2022-08-21T15:09:14.211Z,3.03
2022-08-21T15:10:25.780Z,3.10
2022-08-21T15:11:41.473Z,3.27
2022-08-21T15:12:54.281Z,3.43
2022-08-21T15:14:08.305Z,3.27
2022-08-21T15:15:20.452Z,4.10
2022-08-21T15:16:32.583Z,3.07
2022-08-21T15:17:48.175Z,3.53
2022-08-21T15:19:00.205Z,3.37
2022-08-21T15:20:11.704Z,3.47
2022-08-21T15:21:23.230Z,3.53
2022-08-21T15:22:34.835Z,3.13
2022-08-21T15:23:46.338Z,3.50
2022-08-21T15:24:57.837Z,3.43
2022-08-21T15:26:10.038Z,2.93
2022-08-21T15:27:21.661Z,3.07
2022-08-21T15:28:34.393Z,3.80
2022-08-21T15:29:45.979Z,3.30
2022-08-21T15:30:57.489Z,2.77
2022-08-21T15:32:39.108Z,2.83
2022-08-21T15:33:50.649Z,2.87
2022-08-21T15:35:03.240Z,3.10
2022-08-21T15:36:14.742Z,3.43
2022-08-21T15:37:27.067Z,3.37
2022-08-21T15:38:38.682Z,3.10
2022-08-21T15:39:53.799Z,2.47
2022-08-21T15:41:06.029Z,2.53
2022-08-21T15:42:17.767Z,2.93
2022-08-21T15:43:32.570Z,2.80
2022-08-21T15:44:45.366Z,3.10
2022-08-21T15:45:57.029Z,3.50
2022-08-21T15:47:15.439Z,2.90
2022-08-21T15:48:27.445Z,3.80
2022-08-21T15:49:39.001Z,3.63
2022-08-21T15:50:50.642Z,3.30
2022-08-21T15:52:02.202Z,3.00
2022-08-21T15:53:14.420Z,3.37
2022-08-21T15:54:25.986Z,3.27
2022-08-21T15:55:38.471Z,3.30
2022-08-21T15:56:51.754Z,3.87
2022-08-21T15:58:06.058Z,3.33
2022-08-21T15:59:19.351Z,3.80
2022-08-21T16:00:32.078Z,3.73
2022-08-21T16:01:44.891Z,3.43
2022-08-21T16:02:58.290Z,4.20
2022-08-21T16:04:10.366Z,4.10
2022-08-21T16:05:22.845Z,5.60
2022-08-21T16:06:37.901Z,3.83
2022-08-21T16:08:04.943Z,4.37
2022-08-21T16:09:17.027Z,4.00
2022-08-21T16:10:30.073Z,3.47
2022-08-21T16:11:42.194Z,4.03
2022-08-21T16:12:58.710Z,3.30
2022-08-21T16:14:12.276Z,3.37
2022-08-21T16:15:23.896Z,4.27
2022-08-21T16:16:35.661Z,3.93
2022-08-21T16:17:50.525Z,4.03
2022-08-21T16:19:03.363Z,3.50
2022-08-21T16:20:16.165Z,4.50
2022-08-21T16:21:28.038Z,3.70
2022-08-21T16:22:44.955Z,3.77
2022-08-21T16:24:07.266Z,3.60
2022-08-21T16:25:18.969Z,4.23
2022-08-21T16:26:30.859Z,4.00
2022-08-21T16:27:44.080Z,3.80
2022-08-21T16:28:58.118Z,3.40
2022-08-21T16:30:10.637Z,3.90
2022-08-21T16:31:24.606Z,3.40
2022-08-21T16:47:56.546Z,3.63
2022-08-21T16:49:08.203Z,3.60
2022-08-21T16:50:22.439Z,3.47
2022-08-21T16:51:34.149Z,3.60
2022-08-21T16:52:45.639Z,3.53
2022-08-21T16:54:00.164Z,3.77
2022-08-21T16:55:11.682Z,3.63